Time;durP1;ratioP1;P1;durP2;ratioP2;P2;SDS_P1;SDS_P2;PMS_P1;PMS_P2;Temp;Humidity;BMP_temperature;BMP_pressure;BME280_temperature;BME280_humidity;BME280_pressure;Samples;Min_cycle;Max_cycle;Signal;HPM_P1;HPM_P2
2023/03/13 00:01:08;;;;;;;;;;;;;;;15.23;100.00;100063.84;4987607;28;19921;-56
2023/03/13 00:03:33;;;;;;;;;;;;;;;15.11;100.00;100047.75;4986943;28;19922;-55
2023/03/13 00:05:59;;;;;;;;;;;;;;;15.10;100.00;100036.16;4985630;28;19926;-51
2023/03/13 00:08:27;;;;;;;;;;;;;;;15.30;100.00;100051.84;4982417;28;19950;-55
2023/03/13 00:10:53;;;;;;;;;;;;;;;15.16;100.00;100037.88;4987874;28;19966;-55
2023/03/13 00:13:18;;;;;;;;;;;;;;;15.09;100.00;100026.44;4985658;28;19914;-51
2023/03/13 00:15:44;;;;;;;;;;;;;;;15.33;100.00;100016.31;4988255;28;19922;-53
2023/03/13 00:18:09;;;;;;;;;;;;;;;15.28;100.00;100021.63;4985450;28;19953;-54
2023/03/13 00:20:34;;;;;;;;;;;;;;;15.23;100.00;100015.34;4983298;28;19964;-51
2023/03/13 00:23:00;;;;;;;;;;;;;;;15.10;100.00;100009.22;4984771;28;19977;-52
2023/03/13 00:25:25;;;;;;;;;;;;;;;15.30;100.00;100007.91;4977130;28;19953;-54
2023/03/13 00:27:50;;;;;;;;;;;;;;;15.05;100.00;99993.00;4987801;28;19914;-55
2023/03/13 00:30:16;;;;;;;;;;;;;;;15.05;100.00;99993.84;4988902;28;19925;-54
2023/03/13 00:32:46;;;;;;;;;;;;;;;15.03;100.00;99993.25;4988849;28;19961;-52
2023/03/13 00:35:14;;;;;;;;;;;;;;;14.80;100.00;99994.22;4994357;28;19914;-51
2023/03/13 00:37:40;;;;;;;;;;;;;;;15.09;100.00;99974.50;4996947;28;19922;-53
2023/03/13 00:40:07;;;;;;;;;;;;;;;15.02;100.00;99967.41;4992073;28;19944;-53
2023/03/13 00:42:32;;;;;;;;;;;;;;;14.94;100.00;99973.19;4989364;28;19914;-53
2023/03/13 00:44:58;;;;;;;;;;;;;;;15.15;100.00;99951.94;5001133;28;19918;-57
2023/03/13 00:47:23;;;;;;;;;;;;;;;15.39;100.00;99944.47;4999360;28;19914;-56
2023/03/13 00:49:49;;;;;;;;;;;;;;;15.31;100.00;99944.88;4994505;28;19989;-58
2023/03/13 00:52:14;;;;;;;;;;;;;;;14.98;100.00;99933.94;4987741;28;19922;-52
2023/03/13 00:54:40;;;;;;;;;;;;;;;15.28;100.00;99926.53;4990038;28;19918;-56
2023/03/13 00:57:05;;;;;;;;;;;;;;;15.16;100.00;99924.78;4979723;28;19914;-55
2023/03/13 00:59:31;;;;;;;;;;;;;;;15.02;100.00;99902.78;4989886;28;19918;-54
2023/03/13 01:01:57;;;;;;;;;;;;;;;14.85;100.00;99908.16;4986324;28;19980;-55
2023/03/13 01:04:22;;;;;;;;;;;;;;;14.75;100.00;99906.16;4989476;28;19940;-55
2023/03/13 01:06:48;;;;;;;;;;;;;;;14.94;100.00;99892.41;4988052;28;19914;-58
2023/03/13 01:09:14;;;;;;;;;;;;;;;15.17;100.00;99887.88;5012918;28;19917;-56
2023/03/13 01:11:41;;;;;;;;;;;;;;;15.05;100.00;99871.84;4983684;28;19918;-57
2023/03/13 01:14:09;;;;;;;;;;;;;;;15.11;100.00;99886.19;4983494;28;19914;-57
2023/03/13 01:16:35;;;;;;;;;;;;;;;15.02;100.00;99867.78;4973673;28;19960;-57
2023/03/13 01:19:03;;;;;;;;;;;;;;;14.70;100.00;99871.06;4991993;28;19940;-58
2023/03/13 01:21:30;;;;;;;;;;;;;;;14.55;100.00;99862.78;4989950;28;20017;-57
2023/03/13 01:23:55;;;;;;;;;;;;;;;14.35;100.00;99874.84;4991938;28;19914;-55
2023/03/13 01:26:22;;;;;;;;;;;;;;;14.61;100.00;99857.19;4988653;28;19933;-54
2023/03/13 01:28:47;;;;;;;;;;;;;;;14.53;100.00;99862.19;4986056;28;19914;-56
2023/03/13 01:31:20;;;;;;;;;;;;;;;14.85;100.00;99840.09;4969572;28;19918;-55
2023/03/13 01:33:47;;;;;;;;;;;;;;;14.81;100.00;99850.53;5009374;28;19914;-57
2023/03/13 01:36:14;;;;;;;;;;;;;;;15.14;100.00;99837.22;4989284;28;19989;-56
2023/03/13 01:38:39;;;;;;;;;;;;;;;15.11;100.00;99827.78;4990581;28;19918;-56
2023/03/13 01:41:05;;;;;;;;;;;;;;;14.93;100.00;99834.25;4988332;28;19921;-53
2023/03/13 01:43:32;;;;;;;;;;;;;;;14.72;100.00;99809.75;4997368;28;19918;-55
2023/03/13 01:45:59;;;;;;;;;;;;;;;15.07;100.00;99802.41;4997508;28;19938;-56
2023/03/13 01:48:30;;;;;;;;;;;;;;;15.10;100.00;99803.78;4984834;28;19940;-57
2023/03/13 01:50:58;;;;;;;;;;;;;;;15.04;100.00;99802.91;4983902;28;19922;-56
2023/03/13 01:53:27;;;;;;;;;;;;;;;15.12;100.00;99789.00;5003965;28;19946;-55
2023/03/13 01:55:54;;;;;;;;;;;;;;;15.33;100.00;99786.53;5002400;28;19922;-55
2023/03/13 01:58:20;;;;;;;;;;;;;;;15.33;100.00;99779.28;4983060;28;19918;-55
2023/03/13 02:00:46;;;;;;;;;;;;;;;15.31;100.00;99761.72;4992955;28;19944;-56
2023/03/13 02:03:13;;;;;;;;;;;;;;;15.50;100.00;99764.91;4994069;28;19918;-57
2023/03/13 02:05:40;;;;;;;;;;;;;;;15.48;100.00;99769.72;4989818;28;19913;-54
2023/03/13 02:08:08;;;;;;;;;;;;;;;15.30;100.00;99754.72;4988654;28;19953;-56
2023/03/13 02:10:38;;;;;;;;;;;;;;;15.60;100.00;99750.72;4985055;28;19975;-55
2023/03/13 02:13:03;;;;;;;;;;;;;;;15.55;100.00;99737.16;4997495;28;19960;-53
2023/03/13 02:15:29;;;;;;;;;;;;;;;15.74;100.00;99727.63;4992768;28;19914;-55
2023/03/13 02:17:55;;;;;;;;;;;;;;;15.52;100.00;99713.44;5002600;28;19914;-53
2023/03/13 02:20:21;;;;;;;;;;;;;;;15.69;100.00;99719.50;4985057;28;19948;-53
2023/03/13 02:23:02;;;;;;;;;;;;;;;15.54;100.00;99711.28;4993014;28;19925;-56
2023/03/13 02:25:40;;;;;;;;;;;;;;;15.57;100.00;99710.78;4988905;28;19910;-56
2023/03/13 02:28:08;;;;;;;;;;;;;;;15.52;100.00;99690.00;4988056;28;19947;-52
2023/03/13 02:30:36;;;;;;;;;;;;;;;15.49;100.00;99682.44;4999361;28;19981;-56
2023/03/13 02:33:02;;;;;;;;;;;;;;;15.48;100.00;99688.91;4984980;28;19914;-54
2023/03/13 02:35:28;;;;;;;;;;;;;;;15.66;100.00;99682.31;4991110;28;19984;-53
2023/03/13 02:37:56;;;;;;;;;;;;;;;15.49;100.00;99679.75;4983729;28;19918;-54
2023/03/13 02:40:25;;;;;;;;;;;;;;;15.67;100.00;99672.31;4991127;28;19929;-54
2023/03/13 02:42:51;;;;;;;;;;;;;;;15.53;100.00;99688.94;4971322;28;19929;-56
2023/03/13 02:45:16;;;;;;;;;;;;;;;16.00;100.00;99692.81;4992391;28;19914;-56
2023/03/13 02:47:43;;;;;;;;;;;;;;;15.88;100.00;99684.09;4979492;28;19919;-53
2023/03/13 02:50:10;;;;;;;;;;;;;;;15.81;100.00;99678.91;5011089;28;19917;-57
2023/03/13 02:52:39;;;;;;;;;;;;;;;16.06;100.00;99655.91;4987134;28;19963;-56
2023/03/13 02:55:08;;;;;;;;;;;;;;;16.18;100.00;99661.09;4994208;28;19910;-56
2023/03/13 02:57:34;;;;;;;;;;;;;;;16.08;100.00;99661.84;4992533;28;19952;-56
2023/03/13 03:00:00;;;;;;;;;;;;;;;16.18;100.00;99669.19;4999056;28;19911;-58
2023/03/13 03:02:25;;;;;;;;;;;;;;;16.38;100.00;99655.00;4987773;28;19918;-57
2023/03/13 03:04:52;;;;;;;;;;;;;;;16.46;100.00;99667.16;5009428;28;19914;-52
2023/03/13 03:07:17;;;;;;;;;;;;;;;16.28;100.00;99677.34;4988638;28;19977;-57
2023/03/13 03:09:43;;;;;;;;;;;;;;;16.65;100.00;99670.22;4989639;28;19918;-55
2023/03/13 03:12:14;;;;;;;;;;;;;;;16.73;100.00;99669.69;5006365;28;19914;-54
2023/03/13 03:14:41;;;;;;;;;;;;;;;16.64;100.00;99668.59;4990426;28;19945;-55
2023/03/13 03:17:06;;;;;;;;;;;;;;;16.73;100.00;99666.19;5002337;28;19921;-55
2023/03/13 03:19:32;;;;;;;;;;;;;;;16.83;100.00;99658.13;4989798;28;19914;-54
2023/03/13 03:21:59;;;;;;;;;;;;;;;16.90;100.00;99661.34;4999830;28;19940;-52
2023/03/13 03:24:24;;;;;;;;;;;;;;;17.14;100.00;99663.59;4989668;28;19915;-57
2023/03/13 03:26:50;;;;;;;;;;;;;;;16.96;100.00;99651.38;4991439;28;19922;-55
2023/03/13 03:29:22;;;;;;;;;;;;;;;16.99;100.00;99658.97;4984524;28;20349;-54
2023/03/13 03:31:50;;;;;;;;;;;;;;;17.11;100.00;99655.25;5000534;28;19918;-57
2023/03/13 03:34:16;;;;;;;;;;;;;;;16.92;100.00;99653.00;4993502;28;19921;-56
2023/03/13 03:36:42;;;;;;;;;;;;;;;17.41;100.00;99650.94;4987734;28;19934;-57
2023/03/13 03:39:07;;;;;;;;;;;;;;;16.92;100.00;99653.81;4995043;28;19918;-57
2023/03/13 03:41:34;;;;;;;;;;;;;;;17.14;100.00;99666.28;4995828;28;19957;-55
2023/03/13 03:44:00;;;;;;;;;;;;;;;17.27;100.00;99659.56;4990316;28;19922;-56
2023/03/13 03:46:34;;;;;;;;;;;;;;;17.03;100.00;99643.06;5012675;28;19929;-56
2023/03/13 03:49:00;;;;;;;;;;;;;;;17.22;100.00;99650.66;4987604;28;19918;-58
2023/03/13 03:51:25;;;;;;;;;;;;;;;17.06;100.00;99662.22;5029065;28;19921;-57
2023/03/13 03:53:51;;;;;;;;;;;;;;;17.08;100.00;99661.97;4981657;28;19981;-59
2023/03/13 03:56:16;;;;;;;;;;;;;;;17.01;100.00;99646.03;4990541;28;19921;-56
2023/03/13 03:58:47;;;;;;;;;;;;;;;17.02;100.00;99636.84;5009117;28;20004;-58
2023/03/13 04:01:36;;;;;;;;;;;;;;;17.17;100.00;99636.03;4993156;28;19921;-54
2023/03/13 04:04:02;;;;;;;;;;;;;;;17.05;100.00;99635.50;5016984;28;19914;-56
2023/03/13 04:06:29;;;;;;;;;;;;;;;17.45;100.00;99633.09;4990860;28;19918;-58
2023/03/13 04:08:55;;;;;;;;;;;;;;;17.34;100.00;99627.69;5003429;28;19921;-56
2023/03/13 04:11:23;;;;;;;;;;;;;;;17.12;100.00;99629.84;5000423;28;19948;-55
2023/03/13 04:13:52;;;;;;;;;;;;;;;17.05;100.00;99630.91;4984795;28;19921;-55
2023/03/13 04:16:18;;;;;;;;;;;;;;;17.24;100.00;99618.78;4991247;28;19914;-53
2023/03/13 04:18:44;;;;;;;;;;;;;;;17.43;100.00;99624.44;4997009;28;19937;-54
2023/03/13 04:21:10;;;;;;;;;;;;;;;17.62;100.00;99617.41;4998944;28;19918;-54
2023/03/13 04:23:43;;;;;;;;;;;;;;;17.39;100.00;99624.16;5013904;28;19914;-57
2023/03/13 04:26:09;;;;;;;;;;;;;;;17.50;100.00;99622.25;5011208;28;19914;-58
2023/03/13 04:28:36;;;;;;;;;;;;;;;17.50;100.00;99614.16;4999013;28;19981;-56
2023/03/13 04:31:03;;;;;;;;;;;;;;;17.71;100.00;99597.91;4988302;28;19918;-56
2023/03/13 04:33:47;;;;;;;;;;;;;;;17.77;100.00;99592.22;4990495;28;19921;-53
2023/03/13 04:36:38;;;;;;;;;;;;;;;17.67;100.00;99602.25;4995744;28;19933;-56
2023/03/13 04:39:17;;;;;;;;;;;;;;;17.71;100.00;99581.69;4999491;28;19925;-58
2023/03/13 04:42:05;;;;;;;;;;;;;;;17.87;100.00;99585.97;5003820;28;20426;-56
2023/03/13 04:44:54;;;;;;;;;;;;;;;17.35;100.00;99585.25;4975922;28;19920;-52
2023/03/13 04:47:46;;;;;;;;;;;;;;;17.77;100.00;99577.91;4968570;28;19921;-55
2023/03/13 04:50:30;;;;;;;;;;;;;;;17.53;100.00;99577.69;4990287;28;19929;-53
2023/03/13 04:53:07;;;;;;;;;;;;;;;17.74;100.00;99564.91;4980882;28;19914;-55
2023/03/13 04:55:50;;;;;;;;;;;;;;;17.87;100.00;99569.75;4999358;28;19925;-56
2023/03/13 04:58:38;;;;;;;;;;;;;;;17.54;100.00;99557.66;4990807;28;19921;-56
2023/03/13 05:01:12;;;;;;;;;;;;;;;17.84;100.00;99556.78;5000996;28;19936;-54
2023/03/13 05:03:57;;;;;;;;;;;;;;;17.84;100.00;99564.06;4991739;28;19952;-51
2023/03/13 05:06:37;;;;;;;;;;;;;;;17.66;100.00;99566.31;5014811;28;19914;-53
2023/03/13 05:09:19;;;;;;;;;;;;;;;17.70;100.00;99559.25;4992118;28;19996;-54
2023/03/13 05:12:20;;;;;;;;;;;;;;;17.98;100.00;99542.66;4912929;29;19919;-55
2023/03/13 05:14:58;;;;;;;;;;;;;;;18.01;100.00;99531.31;4972997;28;20004;-52
2023/03/13 05:17:39;;;;;;;;;;;;;;;17.86;100.00;99557.31;4987742;28;19914;-56
2023/03/13 05:20:30;;;;;;;;;;;;;;;18.40;100.00;99556.84;4989838;28;19918;-53
2023/03/13 05:23:05;;;;;;;;;;;;;;;18.06;100.00;99542.13;4991243;28;20469;-54
2023/03/13 05:25:33;;;;;;;;;;;;;;;17.97;100.00;99555.38;4992468;28;19914;-54
2023/03/13 05:28:12;;;;;;;;;;;;;;;18.14;100.00;99552.38;5017185;28;19914;-53
2023/03/13 05:31:07;;;;;;;;;;;;;;;18.04;100.00;99547.81;4976709;28;19940;-55
2023/03/13 05:33:48;;;;;;;;;;;;;;;18.16;100.00;99544.00;4998590;28;19975;-55
2023/03/13 05:36:43;;;;;;;;;;;;;;;18.04;100.00;99541.59;4919219;28;19943;-54
2023/03/13 05:39:31;;;;;;;;;;;;;;;18.48;100.00;99545.44;4991997;28;19946;-55
2023/03/13 05:42:09;;;;;;;;;;;;;;;18.03;100.00;99548.09;4988131;28;19925;-52
2023/03/13 05:44:41;;;;;;;;;;;;;;;18.14;100.00;99555.06;4978370;28;20001;-51
2023/03/13 05:47:28;;;;;;;;;;;;;;;18.24;100.00;99556.91;4996128;28;19981;-53
2023/03/13 05:50:17;;;;;;;;;;;;;;;18.19;100.00;99555.03;4982512;28;19924;-51
2023/03/13 05:53:01;;;;;;;;;;;;;;;18.16;100.00;99550.19;4986002;28;19921;-54
2023/03/13 05:55:47;;;;;;;;;;;;;;;18.23;100.00;99554.50;4990062;28;19914;-55
2023/03/13 05:58:20;;;;;;;;;;;;;;;18.40;100.00;99564.97;4991659;28;19914;-53
2023/03/13 06:00:51;;;;;;;;;;;;;;;18.45;100.00;99562.22;4992911;28;19960;-52
2023/03/13 06:03:41;;;;;;;;;;;;;;;18.29;100.00;99542.56;4998651;28;20021;-55
2023/03/13 06:06:09;;;;;;;;;;;;;;;18.33;100.00;99536.28;4968141;28;19936;-52
2023/03/13 06:08:39;;;;;;;;;;;;;;;18.74;100.00;99537.97;4983571;28;19921;-54
2023/03/13 06:11:05;;;;;;;;;;;;;;;18.53;100.00;99537.28;4989879;28;19923;-53
2023/03/13 06:13:31;;;;;;;;;;;;;;;18.72;100.00;99531.19;5008008;28;19914;-48
2023/03/13 06:16:02;;;;;;;;;;;;;;;18.44;100.00;99520.00;4968517;28;20016;-52
2023/03/13 06:18:48;;;;;;;;;;;;;;;18.28;100.00;99517.38;4986306;28;19914;-54
2023/03/13 06:21:14;;;;;;;;;;;;;;;18.27;100.00;99533.91;4990062;28;19925;-55
2023/03/13 06:23:41;;;;;;;;;;;;;;;18.42;100.00;99525.69;4989756;28;19914;-53
2023/03/13 06:26:06;;;;;;;;;;;;;;;18.25;100.00;99526.06;4987484;28;20005;-52
2023/03/13 06:28:32;;;;;;;;;;;;;;;18.57;100.00;99529.41;4987403;28;19934;-54
2023/03/13 06:31:01;;;;;;;;;;;;;;;18.47;100.00;99541.94;4984862;28;19932;-52
2023/03/13 06:33:27;;;;;;;;;;;;;;;18.60;100.00;99524.25;4986022;28;19981;-53
2023/03/13 06:35:52;;;;;;;;;;;;;;;18.52;100.00;99518.63;4992558;28;19929;-54
2023/03/13 06:38:18;;;;;;;;;;;;;;;18.55;100.00;99523.47;4985361;28;19950;-52
2023/03/13 06:40:43;;;;;;;;;;;;;;;18.56;100.00;99511.53;4990026;28;19914;-53
2023/03/13 06:43:08;;;;;;;;;;;;;;;18.82;100.00;99528.44;4986071;28;19985;-51
2023/03/13 06:45:35;;;;;;;;;;;;;;;18.64;100.00;99521.78;4990797;28;19961;-49
2023/03/13 06:48:00;;;;;;;;;;;;;;;18.46;100.00;99543.03;4980676;28;19922;-55
2023/03/13 06:50:26;;;;;;;;;;;;;;;18.55;100.00;99528.88;4983160;28;19941;-50
2023/03/13 06:52:52;;;;;;;;;;;;;;;18.60;100.00;99528.84;4987333;28;19914;-53
2023/03/13 06:55:17;;;;;;;;;;;;;;;18.85;100.00;99521.63;4992167;28;19936;-53
2023/03/13 06:57:42;;;;;;;;;;;;;;;18.88;100.00;99518.34;4984662;28;19970;-51
2023/03/13 07:00:10;;;;;;;;;;;;;;;19.03;100.00;99515.53;4988108;28;19936;-54
2023/03/13 07:02:35;;;;;;;;;;;;;;;18.74;100.00;99518.19;4982435;28;20016;-55
2023/03/13 07:05:04;;;;;;;;;;;;;;;18.79;100.00;99526.25;4987857;28;19925;-55
2023/03/13 07:07:31;;;;;;;;;;;;;;;18.56;100.00;99522.38;4981271;28;20118;-53
2023/03/13 07:09:57;;;;;;;;;;;;;;;18.87;100.00;99520.25;4991261;28;20009;-51
2023/03/13 07:12:23;;;;;;;;;;;;;;;18.86;100.00;99513.22;4989103;28;19914;-54
2023/03/13 07:14:49;;;;;;;;;;;;;;;18.69;100.00;99515.50;4986958;28;19920;-53
2023/03/13 07:17:14;;;;;;;;;;;;;;;19.10;100.00;99517.09;4983583;28;19914;-51
2023/03/13 07:19:39;;;;;;;;;;;;;;;18.68;100.00;99494.94;4986873;28;19918;-52
2023/03/13 07:22:05;;;;;;;;;;;;;;;18.65;100.00;99512.56;4984790;28;20266;-51
2023/03/13 07:24:30;;;;;;;;;;;;;;;18.96;100.00;99511.50;4990763;28;19921;-52
2023/03/13 07:26:56;;;;;;;;;;;;;;;18.60;100.00;99507.19;4985645;28;19943;-53
2023/03/13 07:29:22;;;;;;;;;;;;;;;18.65;100.00;99509.84;4985132;28;19914;-52
2023/03/13 07:31:47;;;;;;;;;;;;;;;18.71;100.00;99521.44;4986663;28;19914;-52
2023/03/13 07:34:13;;;;;;;;;;;;;;;18.57;100.00;99503.16;4990353;28;19917;-51
2023/03/13 07:36:40;;;;;;;;;;;;;;;18.71;100.00;99526.88;4983731;28;19925;-55
2023/03/13 07:39:05;;;;;;;;;;;;;;;18.67;100.00;99526.63;4988333;28;19918;-47
2023/03/13 07:41:31;;;;;;;;;;;;;;;18.77;100.00;99523.84;4980926;28;19921;-50
2023/03/13 07:43:56;;;;;;;;;;;;;;;18.56;100.00;99522.38;4980297;28;19917;-52
2023/03/13 07:46:22;;;;;;;;;;;;;;;18.28;100.00;99522.81;4985739;28;19921;-50
2023/03/13 07:48:47;;;;;;;;;;;;;;;18.67;100.00;99532.03;4991952;28;19914;-50
2023/03/13 07:51:15;;;;;;;;;;;;;;;18.47;100.00;99582.53;4985229;28;20008;-54
2023/03/13 07:53:41;;;;;;;;;;;;;;;18.26;100.00;99524.97;4991788;28;19920;-54
2023/03/13 07:56:09;;;;;;;;;;;;;;;18.28;100.00;99524.72;4990986;28;19918;-55
2023/03/13 07:58:35;;;;;;;;;;;;;;;18.33;100.00;99539.00;4989586;28;19914;-53
2023/03/13 08:01:13;;;;;;;;;;;;;;;18.23;100.00;99535.56;4996617;28;19914;-53
2023/03/13 08:03:38;;;;;;;;;;;;;;;18.26;100.00;99548.53;4989059;28;19913;-51
2023/03/13 08:06:05;;;;;;;;;;;;;;;18.55;100.00;99523.47;4988085;28;19914;-52
2023/03/13 08:08:30;;;;;;;;;;;;;;;18.54;100.00;99528.06;4983946;28;20165;-50
2023/03/13 08:11:02;;;;;;;;;;;;;;;18.60;100.00;99512.59;4984682;28;19918;-52
2023/03/13 08:13:28;;;;;;;;;;;;;;;18.57;100.00;99521.28;4990506;28;19914;-52
2023/03/13 08:16:04;;;;;;;;;;;;;;;18.78;100.00;99525.47;4986008;28;19977;-51
2023/03/13 08:18:33;;;;;;;;;;;;;;;18.71;100.00;99521.44;4990391;28;19989;-53
2023/03/13 08:21:19;;;;;;;;;;;;;;;18.72;100.00;99517.66;4988558;28;19921;-52
2023/03/13 08:23:45;;;;;;;;;;;;;;;19.01;100.00;99552.94;4985936;28;19914;-53
2023/03/13 08:26:17;;;;;;;;;;;;;;;18.88;100.00;99523.75;4991272;28;19936;-50
2023/03/13 08:28:43;;;;;;;;;;;;;;;19.15;100.00;99530.63;4981891;28;19930;-51
2023/03/13 08:31:13;;;;;;;;;;;;;;;18.41;100.00;99534.91;4983161;28;20006;-53
2023/03/13 08:33:39;;;;;;;;;;;;;;;18.57;100.00;99518.56;4992713;28;19914;-55
2023/03/13 08:36:12;;;;;;;;;;;;;;;19.02;100.00;99532.06;4988141;28;19928;-52
2023/03/13 08:38:37;;;;;;;;;;;;;;;19.06;100.00;99512.25;4981297;28;19922;-52
2023/03/13 08:41:03;;;;;;;;;;;;;;;18.69;100.00;99494.69;4986569;28;19921;-53
2023/03/13 08:43:29;;;;;;;;;;;;;;;19.18;100.00;99486.69;4985911;28;19938;-52
2023/03/13 08:45:55;;;;;;;;;;;;;;;19.04;100.00;99508.22;4985423;28;19918;-51
2023/03/13 08:48:21;;;;;;;;;;;;;;;19.25;100.00;99498.00;4990454;28;19989;-55
2023/03/13 08:50:46;;;;;;;;;;;;;;;19.54;100.00;99483.59;4983397;28;19986;-54
2023/03/13 08:53:12;;;;;;;;;;;;;;;19.30;100.00;99478.19;4989605;28;19949;-52
2023/03/13 08:55:38;;;;;;;;;;;;;;;19.68;100.00;99474.78;4990007;28;19914;-53
2023/03/13 08:58:03;;;;;;;;;;;;;;;19.47;100.00;99483.13;4988607;28;19922;-53
2023/03/13 09:00:28;;;;;;;;;;;;;;;19.34;100.00;99476.50;4984620;28;20737;-51
2023/03/13 09:02:56;;;;;;;;;;;;;;;19.84;100.00;99473.47;4984444;28;19910;-54
2023/03/13 09:05:21;;;;;;;;;;;;;;;19.61;100.00;99494.91;4993856;28;19914;-55
2023/03/13 09:07:47;;;;;;;;;;;;;;;19.58;100.00;99460.22;4988724;28;19921;-56
2023/03/13 09:10:12;;;;;;;;;;;;;;;20.33;100.00;99476.09;4989205;28;19940;-51
2023/03/13 09:12:37;;;;;;;;;;;;;;;20.19;100.00;99486.91;4991959;28;19918;-56
2023/03/13 09:15:03;;;;;;;;;;;;;;;20.48;100.00;99467.72;4980900;28;19922;-54
2023/03/13 09:17:28;;;;;;;;;;;;;;;20.42;100.00;99474.31;4990793;28;19914;-53
2023/03/13 09:19:54;;;;;;;;;;;;;;;20.47;100.00;99482.38;4990678;28;19914;-51
2023/03/13 09:22:19;;;;;;;;;;;;;;;21.00;100.00;99471.53;4990484;28;19918;-52
2023/03/13 09:24:45;;;;;;;;;;;;;;;21.37;100.00;99441.75;4990003;28;19914;-54
2023/03/13 09:27:10;;;;;;;;;;;;;;;21.55;100.00;99454.44;4986653;28;19929;-51
2023/03/13 09:29:38;;;;;;;;;;;;;;;21.41;100.00;99442.75;4986275;28;19964;-52
2023/03/13 09:32:04;;;;;;;;;;;;;;;20.40;100.00;99465.66;4985740;28;20487;-55
2023/03/13 09:34:30;;;;;;;;;;;;;;;20.83;100.00;99426.69;4992113;28;19918;-54
2023/03/13 09:36:56;;;;;;;;;;;;;;;21.03;100.00;99436.41;4986076;28;19931;-52
2023/03/13 09:39:21;;;;;;;;;;;;;;;21.02;100.00;99442.94;4987763;28;19914;-54
2023/03/13 09:41:50;;;;;;;;;;;;;;;21.56;100.00;99428.84;4987257;28;19985;-53
2023/03/13 09:44:22;;;;;;;;;;;;;;;20.90;100.00;99462.47;4986968;28;19940;-55
2023/03/13 09:47:06;;;;;;;;;;;;;;;20.59;100.00;99443.91;4982197;28;19933;-53
2023/03/13 09:49:41;;;;;;;;;;;;;;;21.32;100.00;99451.63;4985884;28;19918;-52
2023/03/13 09:52:23;;;;;;;;;;;;;;;20.77;100.00;99436.84;4990438;28;19914;-54
2023/03/13 09:55:00;;;;;;;;;;;;;;;20.88;100.00;99409.50;4991464;28;19940;-49
2023/03/13 09:57:25;;;;;;;;;;;;;;;20.67;100.00;99437.00;4984669;28;19936;-53
2023/03/13 09:59:57;;;;;;;;;;;;;;;20.37;100.00;99411.16;4984669;28;19922;-51
2023/03/13 10:02:28;;;;;;;;;;;;;;;20.86;100.00;99398.13;4986456;28;19925;-53
2023/03/13 10:05:01;;;;;;;;;;;;;;;21.58;100.00;99431.28;4979984;28;19918;-50
2023/03/13 10:07:26;;;;;;;;;;;;;;;21.65;100.00;99445.31;4984269;28;19957;-54
2023/03/13 10:09:52;;;;;;;;;;;;;;;21.50;100.00;99413.75;4980839;28;19948;-55
2023/03/13 10:12:27;;;;;;;;;;;;;;;20.82;100.00;99427.81;4983433;28;19915;-51
2023/03/13 10:14:59;;;;;;;;;;;;;;;20.56;100.00;99414.63;4989822;28;19977;-51
2023/03/13 10:17:32;;;;;;;;;;;;;;;21.13;100.00;99394.66;4989363;28;19936;-55
2023/03/13 10:20:08;;;;;;;;;;;;;;;21.01;100.00;99406.00;4985309;28;19914;-51
2023/03/13 10:22:36;;;;;;;;;;;;;;;21.54;100.00;99392.19;4987318;28;19936;-51
2023/03/13 10:25:05;;;;;;;;;;;;;;;21.88;100.00;99412.72;4987831;28;19921;-53
2023/03/13 10:27:41;;;;;;;;;;;;;;;22.00;99.15;99432.03;4988014;28;19933;-52
2023/03/13 10:30:18;;;;;;;;;;;;;;;21.58;100.00;99366.00;4984315;28;20568;-56
2023/03/13 10:32:43;;;;;;;;;;;;;;;22.13;97.65;99388.75;4992256;28;19910;-52
2023/03/13 10:35:19;;;;;;;;;;;;;;;21.11;100.00;99396.03;4985596;28;19914;-53
2023/03/13 10:37:44;;;;;;;;;;;;;;;20.95;100.00;99388.16;4988231;28;19918;-54
2023/03/13 10:40:21;;;;;;;;;;;;;;;21.23;100.00;99382.78;4984637;28;19964;-54
2023/03/13 10:42:47;;;;;;;;;;;;;;;21.84;99.21;99384.50;4984417;28;19929;-53
2023/03/13 10:45:15;;;;;;;;;;;;;;;22.09;95.09;99418.50;4985126;28;19914;-54
2023/03/13 10:47:40;;;;;;;;;;;;;;;23.08;90.12;99380.66;4989391;28;19993;-55
2023/03/13 10:50:05;;;;;;;;;;;;;;;22.75;88.75;99407.13;4981224;28;19918;-52
2023/03/13 10:52:41;;;;;;;;;;;;;;;22.83;88.28;99363.84;4981106;28;20443;-53
2023/03/13 10:55:12;;;;;;;;;;;;;;;23.02;85.96;99356.25;4993713;28;19914;-54
2023/03/13 10:57:37;;;;;;;;;;;;;;;22.85;85.01;99367.88;4982553;28;19921;-55
2023/03/13 11:00:22;;;;;;;;;;;;;;;23.72;80.61;99377.44;4983160;28;19914;-53
2023/03/13 11:02:47;;;;;;;;;;;;;;;23.86;79.09;99393.66;4979883;28;19918;-54
2023/03/13 11:05:21;;;;;;;;;;;;;;;23.33;84.33;99371.78;4980337;28;19929;-55
2023/03/13 11:07:47;;;;;;;;;;;;;;;23.77;82.43;99351.94;4984164;28;19914;-55
2023/03/13 11:10:12;;;;;;;;;;;;;;;23.96;79.61;99358.97;4988588;28;19918;-57
2023/03/13 11:12:42;;;;;;;;;;;;;;;24.92;76.41;99363.50;4981515;28;19914;-54
2023/03/13 11:15:12;;;;;;;;;;;;;;;25.50;72.59;99359.50;4984762;28;19914;-55
2023/03/13 11:17:39;;;;;;;;;;;;;;;25.98;70.37;99344.47;4982044;28;19922;-56
2023/03/13 11:20:05;;;;;;;;;;;;;;;25.56;69.64;99358.97;4979883;28;19918;-55
2023/03/13 11:22:43;;;;;;;;;;;;;;;25.62;67.84;99363.13;4979902;28;19921;-55
2023/03/13 11:25:08;;;;;;;;;;;;;;;24.83;68.62;99374.47;4981963;28;19974;-54
2023/03/13 11:27:37;;;;;;;;;;;;;;;25.28;66.72;99340.28;4993686;28;19940;-54
2023/03/13 11:30:21;;;;;;;;;;;;;;;24.38;70.30;99358.50;4986619;28;19925;-56
2023/03/13 11:32:55;;;;;;;;;;;;;;;25.12;70.02;99377.53;4984674;28;19926;-56
2023/03/13 11:35:27;;;;;;;;;;;;;;;24.22;69.80;99355.44;4986111;28;19925;-57
2023/03/13 11:37:56;;;;;;;;;;;;;;;24.71;67.47;99380.59;4986697;28;19990;-55
2023/03/13 11:40:24;;;;;;;;;;;;;;;25.81;65.75;99317.22;4987337;28;19929;-55
2023/03/13 11:42:56;;;;;;;;;;;;;;;26.64;62.61;99339.28;4988101;28;19921;-56
2023/03/13 11:45:41;;;;;;;;;;;;;;;27.17;60.61;99306.53;4987028;28;19914;-55
2023/03/13 11:48:13;;;;;;;;;;;;;;;26.38;58.29;99317.66;4986156;28;19914;-57
2023/03/13 11:50:53;;;;;;;;;;;;;;;25.95;56.71;99284.09;4985546;28;19969;-56
2023/03/13 11:53:25;;;;;;;;;;;;;;;26.43;55.95;99326.47;4992185;28;19985;-57
2023/03/13 11:55:55;;;;;;;;;;;;;;;26.20;55.95;99337.81;4983985;28;19922;-57
2023/03/13 11:58:27;;;;;;;;;;;;;;;25.38;56.53;99343.78;4988661;28;19925;-57
2023/03/13 12:00:58;;;;;;;;;;;;;;;27.25;56.61;99356.13;4987307;28;19918;-55
2023/03/13 12:03:35;;;;;;;;;;;;;;;25.76;56.70;99323.72;4987286;28;19915;-57
2023/03/13 12:06:01;;;;;;;;;;;;;;;26.33;55.14;99333.19;4993481;28;19925;-56
2023/03/13 12:08:34;;;;;;;;;;;;;;;27.04;54.47;99311.22;4985273;28;19921;-53
2023/03/13 12:11:08;;;;;;;;;;;;;;;28.16;52.64;99335.66;4983573;28;19940;-57
2023/03/13 12:13:37;;;;;;;;;;;;;;;28.49;49.40;99303.53;4982872;28;20012;-57
2023/03/13 12:16:24;;;;;;;;;;;;;;;28.57;48.41;99331.97;4986642;28;19922;-56
2023/03/13 12:18:52;;;;;;;;;;;;;;;28.95;47.21;99300.31;4991336;28;19914;-54
2023/03/13 12:21:23;;;;;;;;;;;;;;;26.89;47.17;99296.28;4992199;28;19973;-57
2023/03/13 12:23:59;;;;;;;;;;;;;;;27.72;47.03;99299.91;4990941;28;19914;-53
2023/03/13 12:26:34;;;;;;;;;;;;;;;27.76;46.60;99300.78;4987653;28;19926;-57
2023/03/13 12:29:25;;;;;;;;;;;;;;;27.37;46.00;99314.13;4986027;28;19922;-52
2023/03/13 12:31:55;;;;;;;;;;;;;;;27.59;45.86;99297.19;5000787;28;19942;-54
2023/03/13 12:34:32;;;;;;;;;;;;;;;28.53;44.41;99284.34;4995139;28;19913;-60
2023/03/13 12:37:05;;;;;;;;;;;;;;;28.47;44.58;99301.09;4988181;28;19978;-58
2023/03/13 12:39:50;;;;;;;;;;;;;;;27.99;43.72;99311.22;4985856;28;19918;-56
2023/03/13 12:42:37;;;;;;;;;;;;;;;29.34;42.78;99278.38;4990626;28;19921;-54
2023/03/13 12:45:03;;;;;;;;;;;;;;;30.22;41.88;99238.69;4976501;28;19949;-56
2023/03/13 12:47:33;;;;;;;;;;;;;;;28.64;42.12;99321.16;4983794;28;19914;-57
2023/03/13 12:50:07;;;;;;;;;;;;;;;27.64;43.15;99260.44;4986203;28;19918;-57
2023/03/13 12:52:50;;;;;;;;;;;;;;;29.86;41.76;99247.09;4985821;28;19915;-56